Terminal Aerodrome Forecast
Issued by NWS

Home | Current Version | Previous Version | Text Only | Print | Product List | Glossary On
Versions: 1 2 3 4 5 6 7 8 9 10 11 12 13 14 15 16 17 18 19 20 21 22 23 24 25 26 27 28 29 30 31 32 33 34 35 36 37
000
FTUS45 KGJT 241948 AAA
TAFASE
TAF AMD
KASE 241948Z 2420/2518 34004KT P6SM VCSH FEW015 SCT022 OVC035
      TEMPO 2420/2424 1 1/2SM -SN BR SCT007 BKN015
     FM250000 35008KT P6SM VCSH SCT015 OVC025
     FM250200 22004KT P6SM FEW025 OVC050
     FM251600 VRB03KT P6SM VCSH SCT025 BKN040=

USA.gov is the U.S. government's official web portal to all federal, state and local government web resources and services.